South Big Horn County Information

FAA: GEY - ICAO: KGEY

South Big Horn County (Airport) Location

State Wyoming
County Big Horn
City Greybull
South Big Horn County (Airport) is 2 miles northwest of Greybull, WY.
Latitude 44-31-04.6000N
Longitude 108-04-58.8000W
Elevation 3,941ft

South Big Horn County METARs

METAR KGEY 182353Z AUTO 00000KT 10SM CLR 19/M01 A2974 RMK AO2 SLP063 T01891006 10211 20144 50004
Altimeter 29.74"
Temperature 18.9°C (66.0°F)
Wind 0° at 0KT
Clouds Skies are clear.
Visibility 10.0mi
Time observed: 2021-10-18T23:53:00Z

South Big Horn County (Airport) Details

Status Operational
Activation April 1941
Ownership Public
Usage Public
Chart BILLINGS
ATC on-site No
Beacon schedule sunset-sunrise
Beacon color clear green

South Big Horn County (Airport) Contacts

Owner BIG HORN COUNTY
Owner address BOX 29, BASIN, WY 82410
Owner phone (307) 568-2551
Manager LARRY LUCKINBILL
Manager address 3747 CRANDALL ROAD, CODY, WY 59019
Manager phone 307-899-3176

South Big Horn County Radio Frequencies

South Big Horn County (Airport) Radio Frequencies

UNICOM N/A
Common traffic advisory frequency (CTAF) 122.9